Terminal Aerodrome Forecast
Issued by NWS Sioux Falls, SD

Home | Current Version | Previous Version | Text Only | Print | Product List | Glossary Off
Versions: 1 2 3 4 5 6 7 8 9 10 11 12 13 14 15 16 17 18 19 20 21 22 23 24

000
FTUS43 KFSD 262339
TAFSUX
TAF
KSUX 262339Z 2700/2724 07014G21KT P6SM FEW025 BKN040
     FM270300 08017G24KT P6SM TSRA SCT025 OVC035CB
     FM270600 08019G27KT P6SM SHRA OVC020
     FM271200 08021G29KT 4SM SHRA OVC008
     FM272100 09018G25KT 6SM SHRA OVC015=

USA.gov is the U.S. government's official web portal to all federal, state and local government web resources and services.